createdAt,value
2022-12-18T00:00:19.822Z,99.99
2022-12-18T00:01:19.876Z,99.40
2022-12-18T00:02:19.823Z,99.72
2022-12-18T00:03:19.961Z,99.46
2022-12-18T00:04:20.018Z,99.25
2022-12-18T00:05:19.811Z,98.97
2022-12-18T00:06:19.769Z,97.81
2022-12-18T00:07:19.784Z,98.38
2022-12-18T00:08:19.790Z,97.96
2022-12-18T00:09:19.892Z,98.28
2022-12-18T00:10:19.762Z,98.32
2022-12-18T00:11:19.746Z,98.96
2022-12-18T00:12:19.777Z,99.43
2022-12-18T00:13:19.713Z,99.85
2022-12-18T00:14:19.745Z,99.92
2022-12-18T00:15:20.190Z,99.96
2022-12-18T00:16:19.774Z,99.92
2022-12-18T00:17:19.730Z,99.92
2022-12-18T00:18:20.696Z,99.54
2022-12-18T00:19:19.723Z,99.54
2022-12-18T00:20:19.735Z,99.85
2022-12-18T00:21:19.746Z,99.99
2022-12-18T00:22:19.675Z,99.92
2022-12-18T00:23:19.694Z,99.92
2022-12-18T00:24:19.670Z,99.87
2022-12-18T00:25:19.653Z,99.49
2022-12-18T00:26:19.689Z,98.90
2022-12-18T00:27:19.749Z,99.69
2022-12-18T00:28:19.670Z,99.58
2022-12-18T00:29:19.640Z,99.85
2022-12-18T00:30:19.637Z,99.85
2022-12-18T00:31:19.680Z,99.85
2022-12-18T00:32:19.622Z,99.99
2022-12-18T00:33:19.734Z,99.99
2022-12-18T00:34:19.629Z,99.81
2022-12-18T00:35:19.628Z,99.71
2022-12-18T00:36:19.599Z,99.60
2022-12-18T00:37:20.336Z,99.38
2022-12-18T00:38:19.605Z,99.38
2022-12-18T00:39:19.718Z,99.17
2022-12-18T00:40:19.570Z,98.68
2022-12-18T00:41:19.619Z,99.37
2022-12-18T00:42:19.610Z,99.99
2022-12-18T00:43:19.562Z,99.99
2022-12-18T00:44:19.587Z,99.99
2022-12-18T00:45:19.648Z,99.99
2022-12-18T00:46:19.620Z,99.99
2022-12-18T00:47:19.540Z,99.99
2022-12-18T00:48:19.566Z,99.99
2022-12-18T00:49:19.716Z,99.99
2022-12-18T00:50:19.545Z,99.99
2022-12-18T00:51:19.570Z,99.99
2022-12-18T00:52:19.557Z,99.99
2022-12-18T00:53:19.490Z,99.99
2022-12-18T00:54:19.619Z,99.99
2022-12-18T00:55:19.507Z,99.99
2022-12-18T00:56:19.483Z,99.99
2022-12-18T00:57:19.541Z,99.81
2022-12-18T00:58:19.488Z,99.66
2022-12-18T00:59:19.469Z,99.38
2022-12-18T01:01:11.585Z,98.91
2022-12-18T01:07:14.982Z,98.25
2022-12-18T01:08:08.051Z,98.75
2022-12-18T01:09:08.049Z,99.01
2022-12-18T01:10:08.032Z,98.79
2022-12-18T01:11:08.031Z,99.11
2022-12-18T01:12:08.023Z,99.32
2022-12-18T01:13:08.065Z,99.11
2022-12-18T01:14:08.015Z,98.94
2022-12-18T01:15:08.000Z,99.15
2022-12-18T01:16:08.021Z,99.63
2022-12-18T01:17:07.996Z,99.73
2022-12-18T01:18:07.978Z,99.99
2022-12-18T01:19:08.483Z,99.95
2022-12-18T01:20:07.993Z,99.99
2022-12-18T01:21:07.968Z,99.99
2022-12-18T01:22:07.973Z,99.99
2022-12-18T01:23:07.968Z,99.99
2022-12-18T01:24:07.951Z,99.99
2022-12-18T01:25:07.999Z,99.99
2022-12-18T01:26:07.956Z,99.99
2022-12-18T01:27:07.943Z,99.90
2022-12-18T01:28:07.928Z,99.90
2022-12-18T01:29:07.924Z,99.85
2022-12-18T01:30:07.919Z,99.95
2022-12-18T01:31:07.957Z,99.95
2022-12-18T01:32:07.949Z,99.99
2022-12-18T01:33:07.892Z,99.99
2022-12-18T01:34:07.888Z,99.99
2022-12-18T01:35:07.893Z,99.79
2022-12-18T01:36:07.870Z,99.37
2022-12-18T01:37:07.931Z,99.52
2022-12-18T01:38:07.873Z,99.48
2022-12-18T01:39:07.856Z,99.58
2022-12-18T01:40:07.863Z,99.69
2022-12-18T01:41:07.847Z,99.69
2022-12-18T01:42:07.834Z,99.43
2022-12-18T01:43:07.863Z,99.54
2022-12-18T01:44:07.833Z,99.22
2022-12-18T01:45:07.831Z,99.32
2022-12-18T01:46:07.895Z,98.68
2022-12-18T01:47:07.848Z,98.58
2022-12-18T01:48:07.805Z,98.15
2022-12-18T01:49:07.862Z,98.36
2022-12-18T01:50:07.810Z,98.05
2022-12-18T01:51:07.794Z,98.54
2022-12-18T01:52:07.822Z,98.25
2022-12-18T01:53:07.814Z,98.15
2022-12-18T01:54:07.807Z,97.51
2022-12-18T01:55:07.855Z,97.72
2022-12-18T01:56:07.761Z,97.94
2022-12-18T01:57:07.754Z,97.62
2022-12-18T01:58:07.742Z,97.19
2022-12-18T01:59:07.742Z,97.30
2022-12-18T02:00:07.747Z,97.51
2022-12-18T02:01:07.843Z,96.87
2022-12-18T02:02:07.875Z,96.81
2022-12-18T02:03:07.746Z,97.13
2022-12-18T02:04:07.695Z,97.13
2022-12-18T02:05:07.730Z,97.24
2022-12-18T02:06:07.720Z,96.81
2022-12-18T02:07:07.768Z,96.70
2022-12-18T02:08:07.725Z,97.13
2022-12-18T02:09:07.692Z,97.24
2022-12-18T02:10:07.713Z,96.81
2022-12-18T02:11:07.690Z,96.49
2022-12-18T02:12:07.684Z,96.28
2022-12-18T02:13:07.786Z,95.85
2022-12-18T02:14:07.661Z,95.74
2022-12-18T02:15:07.659Z,96.06
2022-12-18T02:16:07.699Z,96.11
2022-12-18T02:17:07.644Z,96.11
2022-12-18T02:18:07.619Z,95.68
2022-12-18T02:19:07.705Z,95.74
2022-12-18T02:20:07.622Z,96.00
2022-12-18T02:21:07.623Z,95.89
2022-12-18T02:22:07.619Z,95.78
2022-12-18T02:23:07.592Z,96.00
2022-12-18T02:24:07.603Z,95.68
2022-12-18T02:25:08.028Z,95.78
2022-12-18T02:26:07.571Z,96.00
2022-12-18T02:27:07.575Z,96.21
2022-12-18T02:28:07.564Z,96.00
2022-12-18T02:29:07.613Z,96.32
2022-12-18T02:30:07.555Z,96.21
2022-12-18T02:31:07.664Z,95.89
2022-12-18T02:32:07.529Z,96.00
2022-12-18T02:33:07.550Z,96.11
2022-12-18T02:34:07.523Z,95.78
2022-12-18T02:35:07.566Z,95.72
2022-12-18T02:36:07.532Z,95.83
2022-12-18T02:37:07.557Z,96.15
2022-12-18T02:38:07.503Z,95.08
2022-12-18T02:39:07.503Z,96.04
2022-12-18T02:40:07.507Z,95.51
2022-12-18T02:41:07.484Z,95.19
2022-12-18T02:42:07.470Z,95.19
2022-12-18T02:43:07.571Z,96.15
2022-12-18T02:44:07.470Z,95.72
2022-12-18T02:45:07.514Z,95.72
2022-12-18T02:46:07.477Z,96.04
2022-12-18T02:47:07.466Z,95.19
2022-12-18T02:48:07.422Z,95.66
2022-12-18T02:49:07.493Z,96.19
2022-12-18T02:50:07.443Z,95.34
2022-12-18T02:51:07.425Z,95.12
2022-12-18T02:52:07.420Z,95.23
2022-12-18T02:53:07.416Z,96.08
2022-12-18T02:54:07.415Z,96.08
2022-12-18T02:55:07.461Z,96.30
2022-12-18T02:56:07.400Z,95.98
2022-12-18T02:57:07.382Z,96.13
2022-12-18T02:58:07.394Z,95.38
2022-12-18T02:59:07.369Z,95.28
2022-12-18T03:00:28.466Z,95.12
2022-12-18T03:01:07.409Z,94.91
2022-12-18T03:02:07.493Z,94.64
2022-12-18T03:03:07.417Z,94.95
2022-12-18T03:04:07.346Z,95.06
2022-12-18T03:05:07.341Z,94.85
2022-12-18T03:06:07.376Z,94.53
2022-12-18T03:07:07.349Z,94.64
2022-12-18T03:08:07.313Z,94.21
2022-12-18T03:09:07.302Z,95.06
2022-12-18T03:10:07.345Z,94.74
2022-12-18T03:11:07.289Z,94.31
2022-12-18T03:12:07.370Z,93.88
2022-12-18T03:13:07.310Z,94.10
2022-12-18T03:14:07.289Z,94.42
2022-12-18T03:15:07.272Z,94.24
2022-12-18T03:16:15.097Z,94.10
2022-12-18T03:17:07.329Z,94.46
2022-12-18T03:18:07.301Z,94.03
2022-12-18T03:19:07.229Z,94.46
2022-12-18T03:20:07.246Z,94.24
2022-12-18T03:21:07.242Z,94.03
2022-12-18T03:22:07.230Z,93.93
2022-12-18T03:23:07.231Z,93.78
2022-12-18T03:24:07.308Z,94.24
2022-12-18T03:25:07.202Z,94.46
2022-12-18T03:26:07.726Z,93.93
2022-12-18T03:27:07.178Z,94.14
2022-12-18T03:28:07.192Z,94.14
2022-12-18T03:29:07.204Z,93.71
2022-12-18T03:30:07.639Z,93.50
2022-12-18T03:31:07.198Z,93.82
2022-12-18T03:32:07.228Z,93.93
2022-12-18T03:33:07.186Z,93.82
2022-12-18T03:34:07.170Z,93.82
2022-12-18T03:35:07.152Z,94.03
2022-12-18T03:36:07.243Z,93.29
2022-12-18T03:37:07.132Z,93.71
2022-12-18T03:38:07.148Z,93.97
2022-12-18T03:39:07.153Z,93.65
2022-12-18T03:40:07.147Z,93.54
2022-12-18T03:41:07.115Z,93.65
2022-12-18T03:42:07.173Z,93.65
2022-12-18T03:43:07.103Z,93.82
2022-12-18T03:44:07.104Z,93.86
2022-12-18T03:45:07.114Z,93.76
2022-12-18T03:46:07.182Z,93.60
2022-12-18T03:47:07.073Z,93.65
2022-12-18T03:48:07.189Z,93.29
2022-12-18T03:49:07.079Z,93.86
2022-12-18T03:50:12.326Z,93.76
2022-12-18T03:51:08.058Z,93.86
2022-12-18T03:52:07.069Z,93.82
2022-12-18T03:53:07.050Z,92.79
2022-12-18T03:54:07.123Z,93.22
2022-12-18T03:55:07.031Z,92.58
2022-12-18T03:56:07.019Z,93.48
2022-12-18T03:57:07.007Z,92.69
2022-12-18T03:58:07.027Z,92.94
2022-12-18T03:59:07.011Z,92.62
2022-12-18T04:00:07.063Z,93.37
2022-12-18T04:01:07.041Z,93.80
2022-12-18T04:02:07.056Z,92.83
2022-12-18T04:03:07.049Z,93.48
2022-12-18T04:04:07.154Z,94.01
2022-12-18T04:05:06.973Z,93.80
2022-12-18T04:06:07.014Z,93.59
2022-12-18T04:07:06.979Z,92.83
2022-12-18T04:08:06.950Z,92.94
2022-12-18T04:09:06.952Z,93.05
2022-12-18T04:10:06.962Z,93.15
2022-12-18T04:11:06.938Z,93.05
2022-12-18T04:12:07.002Z,93.26
2022-12-18T04:13:07.004Z,93.05
2022-12-18T04:14:07.503Z,93.26
2022-12-18T04:15:17.102Z,93.05
2022-12-18T04:16:06.980Z,93.59
2022-12-18T04:17:06.903Z,93.26
2022-12-18T04:18:06.988Z,92.94
2022-12-18T04:19:06.903Z,93.05
2022-12-18T04:20:06.931Z,93.90
2022-12-18T04:21:06.874Z,93.80
2022-12-18T04:22:06.871Z,93.90
2022-12-18T04:23:06.882Z,93.65
2022-12-18T04:24:06.942Z,92.94
2022-12-18T04:25:06.838Z,93.43
2022-12-18T04:26:06.863Z,93.33
2022-12-18T04:27:06.846Z,92.79
2022-12-18T04:28:06.836Z,93.05
2022-12-18T04:29:06.837Z,92.47
2022-12-18T04:30:06.876Z,92.58
2022-12-18T04:31:06.877Z,92.08
2022-12-18T04:32:06.794Z,92.41
2022-12-18T04:33:06.863Z,92.94
2022-12-18T04:34:06.794Z,92.62
2022-12-18T04:35:06.787Z,93.37
2022-12-18T04:36:07.104Z,92.83
2022-12-18T04:37:06.771Z,92.62
2022-12-18T04:38:06.801Z,92.94
2022-12-18T04:39:06.765Z,92.55
2022-12-18T04:40:06.800Z,92.45
2022-12-18T04:41:06.755Z,91.98
2022-12-18T04:42:06.855Z,91.70
2022-12-18T04:43:06.794Z,92.23
2022-12-18T04:44:06.767Z,92.34
2022-12-18T04:45:06.740Z,91.87
2022-12-18T04:46:06.775Z,91.66
2022-12-18T04:47:06.721Z,91.70
2022-12-18T04:48:06.746Z,91.80
2022-12-18T04:49:06.686Z,91.80
2022-12-18T04:50:06.683Z,92.02
2022-12-18T04:51:06.698Z,92.02
2022-12-18T04:52:06.730Z,92.45
2022-12-18T04:53:06.677Z,92.41
2022-12-18T04:54:06.728Z,91.77
2022-12-18T04:55:06.661Z,92.30
2022-12-18T04:56:06.663Z,92.30
2022-12-18T04:57:06.663Z,92.51
2022-12-18T04:58:06.634Z,92.19
2022-12-18T04:59:06.657Z,92.19
2022-12-18T05:00:06.720Z,92.45
2022-12-18T05:01:06.624Z,92.55
2022-12-18T05:02:06.705Z,92.66
2022-12-18T05:03:06.619Z,91.63
2022-12-18T05:04:06.677Z,91.70
2022-12-18T05:05:06.618Z,91.70
2022-12-18T05:06:06.621Z,91.59
2022-12-18T05:07:06.597Z,91.27
2022-12-18T05:08:06.630Z,91.27
2022-12-18T05:09:06.566Z,91.16
2022-12-18T05:10:06.562Z,91.38
2022-12-18T05:11:06.566Z,90.88
2022-12-18T05:12:06.640Z,91.09
2022-12-18T05:13:06.559Z,90.84
2022-12-18T05:14:06.554Z,91.38
2022-12-18T05:15:06.573Z,91.42
2022-12-18T05:16:06.684Z,91.49
2022-12-18T05:17:06.527Z,91.42
2022-12-18T05:18:06.595Z,91.06
2022-12-18T05:19:06.503Z,90.84
2022-12-18T05:20:06.515Z,90.88
2022-12-18T05:21:06.522Z,90.62
2022-12-18T05:22:06.501Z,91.06
2022-12-18T05:23:06.491Z,91.06
2022-12-18T05:24:06.613Z,91.16
2022-12-18T05:25:06.479Z,91.02
2022-12-18T05:26:06.469Z,91.49
2022-12-18T05:27:06.464Z,91.38
2022-12-18T05:28:34.591Z,91.09
2022-12-18T05:29:07.537Z,90.62
2022-12-18T05:30:06.464Z,91.91
2022-12-18T05:31:19.013Z,91.63
2022-12-18T05:32:07.464Z,91.74
2022-12-18T05:33:06.445Z,91.80
2022-12-18T05:34:06.448Z,91.80
2022-12-18T05:35:06.495Z,91.91
2022-12-18T05:36:06.443Z,91.85
2022-12-18T05:37:06.432Z,91.74
2022-12-18T05:38:06.423Z,91.85
2022-12-18T05:39:06.443Z,91.31
2022-12-18T05:40:06.472Z,91.96
2022-12-18T05:41:06.923Z,91.96
2022-12-18T05:42:06.380Z,91.96
2022-12-18T05:43:06.385Z,91.91
2022-12-18T05:44:06.379Z,91.96
2022-12-18T05:45:06.360Z,91.59
2022-12-18T05:46:06.428Z,91.63
2022-12-18T05:47:06.439Z,91.31
2022-12-18T05:48:06.358Z,91.63
2022-12-18T05:49:06.344Z,91.74
2022-12-18T05:50:06.361Z,91.74
2022-12-18T05:51:06.336Z,91.52
2022-12-18T05:52:06.345Z,91.96
2022-12-18T05:53:06.394Z,92.27
2022-12-18T05:54:06.326Z,92.27
2022-12-18T05:55:06.329Z,91.96
2022-12-18T05:56:06.366Z,91.78
2022-12-18T05:57:06.314Z,91.20
2022-12-18T05:58:06.301Z,91.24
2022-12-18T05:59:06.353Z,91.31
2022-12-18T06:00:06.285Z,91.09
2022-12-18T06:01:06.279Z,91.24
2022-12-18T06:02:06.345Z,91.42
2022-12-18T06:03:06.335Z,91.35
2022-12-18T06:04:06.316Z,91.42
2022-12-18T06:05:06.319Z,91.63
2022-12-18T06:06:06.243Z,91.24
2022-12-18T06:07:06.252Z,91.09
2022-12-18T06:08:06.244Z,90.78
2022-12-18T06:09:06.219Z,91.20
2022-12-18T06:10:06.216Z,91.20
2022-12-18T06:11:06.274Z,91.35
2022-12-18T06:12:06.276Z,91.14
2022-12-18T06:13:06.203Z,91.24
2022-12-18T06:14:06.211Z,91.31
2022-12-18T06:15:06.188Z,91.14
2022-12-18T06:16:06.249Z,91.42
2022-12-18T06:17:06.222Z,91.85
2022-12-18T06:18:06.174Z,91.63
2022-12-18T06:19:06.163Z,91.31
2022-12-18T06:20:06.176Z,90.88
2022-12-18T06:21:06.148Z,91.31
2022-12-18T06:22:06.144Z,90.92
2022-12-18T06:23:06.186Z,90.71
2022-12-18T06:24:06.119Z,91.03
2022-12-18T06:25:06.142Z,91.24
2022-12-18T06:26:06.118Z,91.35
2022-12-18T06:27:06.125Z,91.35
2022-12-18T06:28:12.055Z,90.92
2022-12-18T06:29:07.208Z,90.92
2022-12-18T06:30:06.100Z,91.89
2022-12-18T06:31:06.170Z,91.89
2022-12-18T06:32:06.087Z,91.35
2022-12-18T06:33:06.071Z,91.24
2022-12-18T06:34:06.072Z,91.67
2022-12-18T06:35:06.090Z,91.46
2022-12-18T06:36:06.050Z,91.35
2022-12-18T06:37:06.061Z,91.35
2022-12-18T06:38:06.044Z,91.24
2022-12-18T06:39:06.039Z,91.24
2022-12-18T06:40:06.004Z,91.03
2022-12-18T06:41:06.101Z,91.24
2022-12-18T06:42:06.017Z,91.46
2022-12-18T06:43:06.027Z,91.24
2022-12-18T06:44:06.013Z,91.24
2022-12-18T06:45:06.051Z,91.35
2022-12-18T06:46:06.093Z,91.35
2022-12-18T06:47:06.309Z,91.14
2022-12-18T06:48:05.979Z,91.14
2022-12-18T06:49:05.980Z,91.14
2022-12-18T06:50:05.978Z,91.03
2022-12-18T06:51:05.971Z,91.14
2022-12-18T06:52:05.953Z,91.35
2022-12-18T06:53:05.999Z,91.14
2022-12-18T06:54:05.932Z,90.60
2022-12-18T06:55:05.920Z,90.92
2022-12-18T06:56:09.877Z,90.81
2022-12-18T06:57:05.931Z,91.14
2022-12-18T06:58:05.922Z,90.81
2022-12-18T06:59:05.983Z,90.81
2022-12-18T07:00:05.930Z,90.92
2022-12-18T07:01:06.087Z,90.71
2022-12-18T07:02:05.991Z,91.03
2022-12-18T07:03:05.913Z,91.14
2022-12-18T07:04:05.888Z,90.92
2022-12-18T07:05:10.550Z,90.92
2022-12-18T07:06:06.899Z,90.71
2022-12-18T07:07:05.875Z,89.96
2022-12-18T07:08:05.872Z,90.28
2022-12-18T07:09:05.842Z,90.17
2022-12-18T07:10:05.861Z,89.85
2022-12-18T07:11:05.912Z,89.92
2022-12-18T07:12:05.857Z,89.96
2022-12-18T07:13:05.843Z,89.70
2022-12-18T07:14:05.839Z,89.53
2022-12-18T07:15:05.833Z,89.53
2022-12-18T07:16:09.739Z,90.17
2022-12-18T07:17:07.029Z,89.64
2022-12-18T07:18:05.837Z,89.64
2022-12-18T07:19:05.816Z,89.75
2022-12-18T07:20:05.870Z,89.53
2022-12-18T07:21:05.800Z,89.64
2022-12-18T07:22:05.789Z,89.64
2022-12-18T07:23:05.854Z,89.75
2022-12-18T07:24:05.755Z,89.53
2022-12-18T07:25:05.799Z,89.64
2022-12-18T07:26:05.764Z,89.75
2022-12-18T07:27:05.762Z,89.96
2022-12-18T07:28:05.745Z,89.60
2022-12-18T07:29:05.803Z,90.03
2022-12-18T07:30:05.736Z,89.49
2022-12-18T07:31:05.756Z,89.49
2022-12-18T07:32:05.771Z,89.92
2022-12-18T07:33:05.782Z,89.92
2022-12-18T07:34:05.719Z,89.70
2022-12-18T07:35:05.772Z,89.70
2022-12-18T07:36:05.702Z,89.39
2022-12-18T07:37:05.717Z,89.49
2022-12-18T07:38:05.671Z,89.92
2022-12-18T07:39:05.665Z,90.03
2022-12-18T07:40:05.684Z,89.70
2022-12-18T07:41:06.715Z,89.70
2022-12-18T07:42:05.681Z,89.92
2022-12-18T07:43:05.660Z,89.92
2022-12-18T07:44:05.645Z,89.92
2022-12-18T07:45:05.649Z,89.81
2022-12-18T07:46:05.727Z,89.70
2022-12-18T07:47:10.476Z,90.03
2022-12-18T07:48:06.637Z,89.70
2022-12-18T07:49:05.692Z,89.60
2022-12-18T07:50:05.639Z,90.03
2022-12-18T07:51:05.625Z,89.92
2022-12-18T07:52:05.611Z,90.03
2022-12-18T07:53:06.370Z,89.81
2022-12-18T07:54:05.619Z,89.88
2022-12-18T07:55:05.584Z,89.88
2022-12-18T07:56:26.563Z,89.77
2022-12-18T07:57:16.557Z,89.45
2022-12-18T07:58:06.607Z,89.56
2022-12-18T07:59:05.575Z,89.13
2022-12-18T08:00:05.573Z,88.92
2022-12-18T08:01:05.608Z,88.81
2022-12-18T08:02:05.721Z,88.64
2022-12-18T08:03:05.593Z,88.74
2022-12-18T08:04:05.619Z,88.74
2022-12-18T08:05:05.582Z,89.06
2022-12-18T08:06:05.523Z,88.92
2022-12-18T08:07:05.547Z,89.17
2022-12-18T08:08:05.508Z,88.70
2022-12-18T08:09:05.506Z,89.03
2022-12-18T08:10:05.574Z,89.13
2022-12-18T08:11:05.501Z,89.03
2022-12-18T08:12:05.499Z,89.39
2022-12-18T08:13:05.529Z,89.17
2022-12-18T08:14:05.478Z,89.45
2022-12-18T08:15:05.483Z,89.24
2022-12-18T08:16:05.550Z,88.81
2022-12-18T08:17:05.519Z,88.38
2022-12-18T08:18:07.234Z,88.45
2022-12-18T08:19:06.454Z,88.45
2022-12-18T08:20:05.452Z,88.56
2022-12-18T08:21:05.488Z,88.13
2022-12-18T08:22:05.481Z,87.49
2022-12-18T08:23:05.447Z,88.13
2022-12-18T08:24:05.394Z,87.77
2022-12-18T08:25:05.410Z,87.70
2022-12-18T08:26:05.416Z,87.06
2022-12-18T08:28:06.480Z,87.87
2022-12-18T08:29:05.397Z,88.05
2022-12-18T08:30:05.365Z,87.51
2022-12-18T08:31:05.437Z,87.84
2022-12-18T08:32:05.427Z,87.30
2022-12-18T08:33:05.363Z,86.30
2022-12-18T08:34:05.439Z,86.62
2022-12-18T08:35:05.352Z,86.09
2022-12-18T08:36:05.349Z,86.69
2022-12-18T08:37:11.227Z,86.62
2022-12-18T08:38:06.375Z,86.47
2022-12-18T08:39:05.306Z,86.05
2022-12-18T08:40:05.357Z,86.76
2022-12-18T08:41:05.323Z,86.72
2022-12-18T08:42:09.906Z,85.65
2022-12-18T08:43:06.301Z,84.91
2022-12-18T08:44:05.297Z,85.55
2022-12-18T08:45:05.283Z,84.91
2022-12-18T08:46:05.359Z,85.76
2022-12-18T08:47:05.269Z,86.15
2022-12-18T08:48:05.283Z,85.50
2022-12-18T08:49:05.258Z,84.97
2022-12-18T08:50:05.258Z,84.83
2022-12-18T08:51:05.236Z,84.94
2022-12-18T08:52:05.283Z,85.36
2022-12-18T08:53:05.224Z,84.94
2022-12-18T08:54:05.305Z,84.69
2022-12-18T08:55:05.249Z,84.90
2022-12-18T08:56:05.223Z,84.79
2022-12-18T08:57:05.208Z,84.69
2022-12-18T08:58:05.652Z,84.22
2022-12-18T08:59:05.198Z,84.25
2022-12-18T09:00:05.213Z,82.94
2022-12-18T09:01:05.318Z,82.69
2022-12-18T09:02:05.332Z,81.95
2022-12-18T09:03:05.224Z,80.42
2022-12-18T09:04:05.236Z,80.49
2022-12-18T09:05:05.181Z,79.00
2022-12-18T09:06:05.152Z,78.97
2022-12-18T09:07:05.158Z,78.61
2022-12-18T09:08:05.171Z,77.80
2022-12-18T09:09:05.147Z,78.02
2022-12-18T09:10:05.236Z,77.41
2022-12-18T09:11:05.129Z,78.19
2022-12-18T09:12:05.141Z,80.07
2022-12-18T09:13:05.136Z,80.28
2022-12-18T09:14:05.120Z,80.53
2022-12-18T09:15:05.123Z,81.31
2022-12-18T09:16:05.172Z,81.95
2022-12-18T09:17:05.161Z,82.87
2022-12-18T09:18:05.112Z,82.48
2022-12-18T09:19:05.091Z,82.16
2022-12-18T09:20:05.090Z,81.91
2022-12-18T09:21:05.073Z,81.91
2022-12-18T09:22:05.137Z,81.87
2022-12-18T09:23:05.048Z,80.77
2022-12-18T09:24:08.017Z,80.28
2022-12-18T09:25:05.062Z,78.86
2022-12-18T09:26:05.121Z,78.72
2022-12-18T09:27:05.045Z,78.65
2022-12-18T09:28:05.088Z,76.42
2022-12-18T09:29:05.018Z,76.50
2022-12-18T09:30:05.058Z,76.67
2022-12-18T09:31:05.086Z,75.62
2022-12-18T09:32:05.040Z,74.95
2022-12-18T09:33:05.021Z,75.16
2022-12-18T09:34:05.034Z,75.68
2022-12-18T09:35:09.817Z,74.87
2022-12-18T09:36:04.977Z,76.25
2022-12-18T09:37:04.975Z,76.18
2022-12-18T09:38:04.963Z,74.56
2022-12-18T09:39:08.214Z,73.61
2022-12-18T09:40:05.015Z,73.08
2022-12-18T09:41:04.952Z,72.13
2022-12-18T09:42:05.018Z,73.05
2022-12-18T09:43:04.957Z,71.88
2022-12-18T09:44:04.945Z,71.56
2022-12-18T09:45:04.993Z,71.46
2022-12-18T09:46:05.009Z,72.24
2022-12-18T09:47:04.925Z,72.52
2022-12-18T09:48:04.922Z,74.39
2022-12-18T09:49:04.925Z,72.34
2022-12-18T09:50:04.915Z,72.42
2022-12-18T09:51:04.883Z,70.84
2022-12-18T09:52:04.951Z,71.65
2022-12-18T09:53:04.896Z,71.01
2022-12-18T09:54:04.902Z,70.80
2022-12-18T09:55:04.890Z,69.89
2022-12-18T09:56:04.871Z,71.47
2022-12-18T09:57:04.846Z,70.87
2022-12-18T09:58:04.963Z,71.61
2022-12-18T09:59:04.833Z,71.19
2022-12-18T10:00:04.830Z,72.49
2022-12-18T10:01:04.860Z,72.45
2022-12-18T10:02:04.857Z,72.45
2022-12-18T10:03:04.931Z,73.27
2022-12-18T10:04:05.104Z,72.84
2022-12-18T10:05:04.811Z,72.42
2022-12-18T10:06:04.784Z,71.95
2022-12-18T10:07:09.083Z,72.38
2022-12-18T10:08:04.800Z,73.44
2022-12-18T10:09:04.778Z,73.37
2022-12-18T10:10:04.832Z,73.47
2022-12-18T10:11:04.746Z,74.01
2022-12-18T10:12:04.763Z,73.79
2022-12-18T10:13:05.098Z,73.72
2022-12-18T10:14:04.797Z,72.81
2022-12-18T10:15:04.727Z,71.97
2022-12-18T10:16:04.858Z,70.92
2022-12-18T10:17:04.718Z,71.20
2022-12-18T10:18:04.711Z,69.91
2022-12-18T10:19:04.704Z,69.00
2022-12-18T10:20:04.708Z,66.52
2022-12-18T10:21:04.667Z,65.67
2022-12-18T10:22:04.739Z,68.19
2022-12-18T10:23:04.672Z,69.10
2022-12-18T10:24:04.673Z,68.62
2022-12-18T10:25:04.659Z,66.49
2022-12-18T10:26:04.637Z,65.20
2022-12-18T10:27:04.623Z,64.68
2022-12-18T10:28:04.702Z,65.52
2022-12-18T10:29:05.892Z,64.70
2022-12-18T10:30:10.532Z,65.76
2022-12-18T10:31:05.716Z,65.02
2022-12-18T10:32:04.603Z,64.99
2022-12-18T10:33:04.580Z,64.36
2022-12-18T10:34:04.638Z,64.15
2022-12-18T10:35:04.559Z,65.41
2022-12-18T10:36:04.574Z,65.02
2022-12-18T10:37:04.570Z,65.16
2022-12-18T10:38:04.541Z,65.71
2022-12-18T10:39:04.560Z,67.32
2022-12-18T10:40:04.611Z,68.27
2022-12-18T10:41:04.531Z,68.51
2022-12-18T10:42:04.529Z,70.09
2022-12-18T10:43:04.516Z,69.52
2022-12-18T10:44:04.527Z,70.15
2022-12-18T10:45:04.464Z,71.87
2022-12-18T10:46:04.596Z,72.32
2022-12-18T10:47:10.194Z,73.38
2022-12-18T10:48:05.497Z,73.80
2022-12-18T10:49:04.448Z,74.36
2022-12-18T10:50:04.476Z,74.22
2022-12-18T10:51:12.982Z,74.22
2022-12-18T10:52:05.497Z,73.66
2022-12-18T10:53:04.422Z,72.64
2022-12-18T10:54:04.431Z,72.39
2022-12-18T10:55:04.416Z,72.61
2022-12-18T10:56:04.404Z,73.38
2022-12-18T10:57:04.400Z,74.43
2022-12-18T10:58:04.442Z,74.92
2022-12-18T10:59:04.389Z,74.29
2022-12-18T11:00:04.369Z,73.45
2022-12-18T11:01:04.366Z,73.55
2022-12-18T11:02:04.474Z,73.59
2022-12-18T11:03:04.589Z,73.70
2022-12-18T11:04:04.923Z,72.75
2022-12-18T11:05:04.346Z,72.47
2022-12-18T11:06:04.326Z,73.73
2022-12-18T11:07:04.315Z,74.15
2022-12-18T11:08:04.335Z,74.26
2022-12-18T11:09:09.367Z,73.63
2022-12-18T11:10:05.369Z,73.59
2022-12-18T11:11:04.275Z,73.94
2022-12-18T11:12:04.289Z,73.80
2022-12-18T11:13:04.275Z,74.01
2022-12-18T11:14:04.273Z,74.40
2022-12-18T11:15:04.271Z,72.08
2022-12-18T11:16:04.379Z,72.96
2022-12-18T11:18:05.239Z,73.07
2022-12-18T11:19:04.282Z,73.66
2022-12-18T11:20:04.240Z,72.58
2022-12-18T11:21:04.215Z,71.84
2022-12-18T11:22:04.251Z,71.73
2022-12-18T11:23:04.218Z,71.70
2022-12-18T11:24:05.202Z,71.67
2022-12-18T11:26:05.181Z,72.20
2022-12-18T11:27:04.161Z,71.78
2022-12-18T11:28:04.239Z,71.60
2022-12-18T11:29:04.155Z,71.60
2022-12-18T11:30:04.151Z,71.81
2022-12-18T11:31:04.205Z,71.56
2022-12-18T11:32:04.141Z,71.04
2022-12-18T11:33:04.154Z,71.81
2022-12-18T11:34:28.209Z,72.33
2022-12-18T11:35:05.171Z,71.95
2022-12-18T11:36:04.144Z,73.42
2022-12-18T11:37:04.177Z,73.32
2022-12-18T11:38:04.092Z,73.60
2022-12-18T11:39:04.092Z,73.32
2022-12-18T11:40:04.138Z,73.39
2022-12-18T11:41:04.081Z,73.32
2022-12-18T11:42:04.082Z,73.70
2022-12-18T11:43:04.059Z,73.49
2022-12-18T11:44:04.045Z,73.49
2022-12-18T11:45:04.045Z,73.28
2022-12-18T11:46:04.132Z,73.24
2022-12-18T11:47:04.101Z,74.08
2022-12-18T11:48:04.031Z,74.26
2022-12-18T11:49:04.027Z,74.26
2022-12-18T11:50:04.022Z,73.98
2022-12-18T11:51:04.089Z,74.37
2022-12-18T11:52:04.049Z,73.94
2022-12-18T11:53:06.160Z,74.44
2022-12-18T11:54:03.986Z,73.99
2022-12-18T11:55:03.984Z,73.43
2022-12-18T11:56:03.980Z,73.35
2022-12-18T11:57:03.932Z,74.22
2022-12-18T11:58:03.982Z,73.49
2022-12-18T11:59:03.951Z,73.63
2022-12-18T12:00:03.953Z,74.16
2022-12-18T12:01:03.940Z,75.10
2022-12-18T12:02:04.036Z,75.52
2022-12-18T12:03:03.990Z,75.10
2022-12-18T12:04:04.055Z,74.68
2022-12-18T12:05:03.902Z,74.76
2022-12-18T12:06:03.895Z,74.96
2022-12-18T12:07:03.965Z,74.33
2022-12-18T12:08:03.893Z,74.02
2022-12-18T12:09:03.871Z,74.79
2022-12-18T12:10:04.121Z,74.76
2022-12-18T12:11:03.847Z,74.86
2022-12-18T12:12:03.834Z,75.04
2022-12-18T12:13:03.818Z,74.62
2022-12-18T12:14:03.836Z,74.19
2022-12-18T12:15:03.830Z,73.04
2022-12-18T12:16:03.910Z,74.09
2022-12-18T12:17:03.786Z,73.46
2022-12-18T12:18:08.181Z,73.81
2022-12-18T12:19:04.795Z,74.02
2022-12-18T12:20:03.794Z,75.21
2022-12-18T12:21:03.792Z,74.71
2022-12-18T12:22:03.827Z,76.47
2022-12-18T12:23:03.824Z,76.79
2022-12-18T12:24:03.769Z,75.73
2022-12-18T12:25:03.765Z,75.42
2022-12-18T12:26:03.761Z,75.84
2022-12-18T12:27:03.732Z,75.84
2022-12-18T12:28:03.772Z,76.15
2022-12-18T12:29:03.727Z,75.38
2022-12-18T12:30:03.711Z,75.42
2022-12-18T12:31:03.721Z,75.81
2022-12-18T12:32:03.800Z,75.38
2022-12-18T12:33:03.729Z,75.63
2022-12-18T12:34:03.774Z,76.54
2022-12-18T12:35:09.219Z,75.91
2022-12-18T12:36:04.671Z,76.43
2022-12-18T12:37:03.676Z,76.09
2022-12-18T12:38:03.667Z,76.54
2022-12-18T12:39:03.709Z,76.33
2022-12-18T12:40:15.222Z,76.54
2022-12-18T12:41:04.706Z,77.00
2022-12-18T12:42:03.657Z,76.68
2022-12-18T12:43:03.623Z,76.93
2022-12-18T12:44:03.621Z,77.28
2022-12-18T12:45:03.622Z,78.33
2022-12-18T12:46:03.763Z,78.58
2022-12-18T12:47:03.581Z,78.64
2022-12-18T12:48:03.564Z,78.78
2022-12-18T12:49:03.570Z,79.17
2022-12-18T12:50:03.576Z,78.64
2022-12-18T12:51:03.582Z,78.86
2022-12-18T12:52:03.593Z,79.42
2022-12-18T12:53:03.577Z,79.74
2022-12-18T12:54:03.546Z,79.70
2022-12-18T12:55:03.604Z,79.60
2022-12-18T12:56:03.543Z,79.77
2022-12-18T12:57:03.522Z,79.66
2022-12-18T12:58:03.579Z,80.05
2022-12-18T12:59:03.556Z,79.73
2022-12-18T13:00:03.507Z,78.68
2022-12-18T13:01:03.533Z,78.58